| Date | Time | Temp. (oF) | Dew Point (oF) | Rel. Hum. (%) | Press. (in.) | Wind Dir. | Wind Speed (mph) | Hourly Rainfall (in.) |
|
|---|---|---|---|---|---|---|---|---|---|
| 1 | 08/09 | 00:00 | 63 | 53 | 72 | 30.18 | NNW | 0 | 0.00 |
| 2 | 08/08 | 23:00 | 67 | 53 | 63 | 30.18 | NNW | 0 | 0.00 |
| 3 | 08/08 | 22:00 | 72 | 51 | 48 | 30.17 | NNW | 0 | 0.00 |
| 4 | 08/08 | 21:00 | 76 | 50 | 41 | 30.14 | N | 2 | 0.00 |
| 5 | 08/08 | 20:00 | 79 | 49 | 36 | 30.12 | NNW | 3 | 0.00 |
| 6 | 08/08 | 19:00 | 82 | 49 | 33 | 30.11 | N | 7 | 0.00 |
| 7 | 08/08 | 18:00 | 83 | 49 | 32 | 30.10 | N | 7 | 0.00 |
| 8 | 08/08 | 17:00 | 82 | 51 | 35 | 30.10 | NNW | 5 | 0.00 |
| 9 | 08/08 | 16:00 | 83 | 49 | 32 | 30.10 | NNW | 8 | 0.00 |
| 10 | 08/08 | 15:00 | 84 | 49 | 31 | 30.11 | W | 2 | 0.00 |
| 11 | 08/08 | 14:00 | 82 | 51 | 35 | 30.13 | N | 10 | 0.00 |
| 12 | 08/08 | 13:00 | 79 | 50 | 37 | 30.14 | NNW | 4 | 0.00 |
| 13 | 08/08 | 12:00 | 79 | 53 | 41 | 30.16 | NW | 5 | 0.00 |
| 14 | 08/08 | 11:00 | 76 | 54 | 48 | 30.17 | NNW | 12 | 0.00 |
| 15 | 08/08 | 10:00 | 72 | 55 | 57 | 30.18 | NW | 8 | 0.00 |
| 16 | 08/08 | 09:00 | 68 | 55 | 64 | 30.18 | N | 3 | 0.00 |
| 17 | 08/08 | 08:00 | 62 | 55 | 79 | 30.18 | NW | 3 | 0.00 |
| 18 | 08/08 | 07:00 | 55 | 53 | 93 | 30.18 | NW | 1 | 0.00 |
| 19 | 08/08 | 06:00 | 54 | 51 | 92 | 30.15 | SSW | 0 | 0.00 |
| 20 | 08/08 | 05:00 | 55 | 52 | 90 | 30.15 | SSW | 0 | 0.00 |
| 21 | 08/08 | 04:00 | 56 | 52 | 87 | 30.13 | WSW | 0 | 0.00 |
| 22 | 08/08 | 03:00 | 57 | 52 | 86 | 30.14 | SSW | 0 | 0.00 |
| 23 | 08/08 | 02:00 | 58 | 53 | 86 | 30.14 | S | 1 | 0.00 |
| 24 | 08/08 | 01:00 | 60 | 53 | 79 | 30.13 | WNW | 0 | 0.00 |